Time;durP1;ratioP1;P1;durP2;ratioP2;P2;SDS_P1;SDS_P2;PMS_P1;PMS_P2;Temp;Humidity;BMP_temperature;BMP_pressure;BME280_temperature;BME280_humidity;BME280_pressure;Samples;Min_cycle;Max_cycle;Signal;HPM_P1;HPM_P2
2022/07/17 00:02:00;;;;;;;12.05;6.38;;;;;;;15.74;71.53;99831.75;4935724;29;20114;-78
2022/07/17 00:04:28;;;;;;;11.88;7.75;;;;;;;15.73;71.31;99829.13;4934237;29;20056;-78
2022/07/17 00:06:55;;;;;;;15.48;7.30;;;;;;;15.72;72.09;99841.44;4935672;29;20055;-78
2022/07/17 00:09:22;;;;;;;15.45;8.00;;;;;;;15.68;72.37;99838.84;4935273;29;20114;-78
2022/07/17 00:11:49;;;;;;;11.18;7.60;;;;;;;15.64;72.55;99822.25;4935553;29;20115;-77
2022/07/17 00:14:17;;;;;;;12.82;8.18;;;;;;;15.51;72.27;99805.81;4935272;29;20063;-78
2022/07/17 00:16:44;;;;;;;13.95;7.63;;;;;;;15.62;72.35;99815.28;4935331;29;20461;-79
2022/07/17 00:19:11;;;;;;;15.82;7.60;;;;;;;15.50;72.52;99811.09;4935326;29;20076;-78
2022/07/17 00:21:38;;;;;;;16.00;8.07;;;;;;;15.64;72.73;99840.69;4918547;29;20055;-78
2022/07/17 00:24:06;;;;;;;14.77;8.73;;;;;;;15.44;72.66;99805.91;4935984;29;20080;-78
2022/07/17 00:26:33;;;;;;;15.00;8.05;;;;;;;15.60;72.81;99844.25;4935196;29;20060;-78
2022/07/17 00:29:03;;;;;;;13.45;7.95;;;;;;;15.56;72.93;99834.66;4935592;29;20047;-80
2022/07/17 00:31:31;;;;;;;16.93;8.87;;;;;;;15.56;72.93;99842.56;4935671;29;20059;-78
2022/07/17 00:33:58;;;;;;;14.73;8.73;;;;;;;15.55;73.02;99848.72;4936304;29;20061;-79
2022/07/17 00:36:25;;;;;;;13.93;8.20;;;;;;;15.42;73.13;99829.63;4934975;29;20158;-78
2022/07/17 00:38:52;;;;;;;16.85;8.75;;;;;;;15.50;73.24;99856.69;4935219;29;20055;-77
2022/07/17 00:41:19;;;;;;;17.17;8.20;;;;;;;15.32;73.39;99814.91;4935092;29;20055;-78
2022/07/17 00:43:47;;;;;;;16.95;8.23;;;;;;;15.42;73.09;99832.25;4934652;29;20064;-78
2022/07/17 00:46:14;;;;;;;15.00;8.25;;;;;;;15.47;73.04;99834.84;4935280;29;20062;-79
2022/07/17 00:48:41;;;;;;;14.45;8.18;;;;;;;15.43;72.97;99827.88;4935225;29;20531;-80
2022/07/17 00:51:09;;;;;;;15.70;8.98;;;;;;;15.45;72.55;99831.38;4935603;29;20083;-79
2022/07/17 00:53:37;;;;;;;13.95;8.65;;;;;;;15.46;71.89;99838.34;4938838;29;20462;-78
2022/07/17 00:56:05;;;;;;;16.48;8.70;;;;;;;15.53;71.42;99847.88;4939291;29;20103;-79
2022/07/17 00:58:35;;;;;;;15.48;8.35;;;;;;;15.47;70.60;99824.31;4921654;29;20425;-78
2022/07/17 01:01:06;;;;;;;16.88;8.73;;;;;;;15.47;69.94;99834.84;4938317;29;20056;-77
2022/07/17 01:03:34;;;;;;;18.05;8.85;;;;;;;15.62;69.61;99854.78;4938592;29;20154;-79
2022/07/17 01:06:02;;;;;;;14.77;8.73;;;;;;;15.66;69.64;99845.91;4938687;29;20529;-78
2022/07/17 01:08:29;;;;;;;17.50;8.63;;;;;;;15.68;69.50;99857.25;4938471;29;20063;-79
2022/07/17 01:10:57;;;;;;;17.75;8.38;;;;;;;15.70;69.39;99856.38;4938832;29;20059;-78
2022/07/17 01:13:24;;;;;;;17.40;8.55;;;;;;;15.63;69.39;99838.91;4938582;29;20063;-79
2022/07/17 01:15:52;;;;;;;14.48;7.88;;;;;;;15.72;69.74;99849.34;4938187;29;20505;-80
2022/07/17 01:18:19;;;;;;;15.15;8.45;;;;;;;15.79;69.57;99859.75;4938430;29;20510;-79
2022/07/17 01:20:48;;;;;;;18.70;8.48;;;;;;;15.81;69.91;99855.31;4938441;29;20103;-77
2022/07/17 01:23:17;;;;;;;13.88;7.97;;;;;;;15.85;70.11;99857.91;4938347;29;20504;-77
2022/07/17 01:25:45;;;;;;;11.30;7.28;;;;;;;15.90;70.31;99856.03;4938621;29;20521;-79
2022/07/17 01:28:12;;;;;;;14.38;7.13;;;;;;;15.97;70.25;99857.66;4938187;29;20052;-77
2022/07/17 01:30:48;;;;;;;12.02;6.85;;;;;;;16.02;70.15;99857.56;4937788;29;20429;-77
2022/07/17 01:33:17;;;;;;;12.82;7.50;;;;;;;16.07;70.00;99858.34;4938206;29;20437;-78
2022/07/17 01:35:44;;;;;;;12.05;7.40;;;;;;;16.09;69.92;99856.56;4938078;29;20064;-80
2022/07/17 01:38:13;;;;;;;10.68;7.28;;;;;;;15.84;69.72;99807.88;4938130;29;20063;-79
2022/07/17 01:40:40;;;;;;;9.98;7.25;;;;;;;16.08;69.89;99861.84;4938043;29;20143;-78
2022/07/17 01:43:08;;;;;;;11.75;7.72;;;;;;;15.93;69.61;99831.41;4938008;29;20076;-79
2022/07/17 01:45:35;;;;;;;10.65;7.10;;;;;;;16.11;70.06;99853.88;4937923;29;20103;-78
2022/07/17 01:48:02;;;;;;;12.02;7.88;;;;;;;16.08;69.82;99854.81;4920947;29;20052;-78
2022/07/17 01:50:29;;;;;;;14.60;7.35;;;;;;;16.12;69.84;99871.44;4937976;29;20059;-78
2022/07/17 01:52:56;;;;;;;13.15;7.78;;;;;;;16.14;69.75;99862.59;4937798;29;20056;-77
2022/07/17 01:55:23;;;;;;;10.93;6.88;;;;;;;16.07;69.68;99833.78;4937719;29;20095;-77
2022/07/17 01:57:50;;;;;;;12.05;7.35;;;;;;;16.26;69.28;99860.63;4938164;29;20107;-79
2022/07/17 02:00:20;;;;;;;14.52;8.00;;;;;;;16.09;69.06;99818.78;4937894;29;20062;-77
2022/07/17 02:02:47;;;;;;;12.45;8.40;;;;;;;16.19;69.36;99846.69;4937677;29;20058;-78
2022/07/17 02:05:14;;;;;;;12.95;8.00;;;;;;;15.98;69.30;99803.19;4937697;29;20106;-77
2022/07/17 02:07:41;;;;;;;14.50;8.40;;;;;;;16.01;69.44;99815.44;4937155;29;20066;-78
2022/07/17 02:10:09;;;;;;;16.08;7.75;;;;;;;16.27;69.05;99846.56;4937680;29;20111;-76
2022/07/17 02:12:37;;;;;;;16.45;8.85;;;;;;;16.04;69.20;99807.47;4937541;29;20051;-79
2022/07/17 02:15:05;;;;;;;12.30;7.82;;;;;;;16.36;68.80;99859.53;4937540;29;20097;-78
2022/07/17 02:17:37;;;;;;;13.77;8.02;;;;;;;16.27;69.04;99831.59;4937543;29;20070;-78
2022/07/17 02:20:06;;;;;;;12.60;8.18;;;;;;;16.44;68.94;99856.75;4937435;29;20055;-77
2022/07/17 02:22:34;;;;;;;13.30;8.30;;;;;;;16.46;68.65;99855.81;4940115;29;20418;-76
2022/07/17 02:25:05;;;;;;;13.75;7.95;;;;;;;16.47;68.42;99849.63;4937573;29;20440;-79
2022/07/17 02:27:33;;;;;;;14.32;8.00;;;;;;;16.46;68.67;99834.72;4937229;29;20056;-79
2022/07/17 02:30:05;;;;;;;13.02;8.68;;;;;;;16.48;68.56;99861.06;4937464;29;20065;-79
2022/07/17 02:32:32;;;;;;;13.55;8.80;;;;;;;16.26;68.70;99808.78;4937168;29;20122;-79
2022/07/17 02:34:59;;;;;;;16.40;9.38;;;;;;;16.50;68.75;99851.34;4937065;29;20573;-78
2022/07/17 02:37:26;;;;;;;18.60;11.63;;;;;;;16.49;68.47;99839.91;4936939;29;20052;-79
2022/07/17 02:39:53;;;;;;;16.45;10.40;;;;;;;16.59;68.41;99848.53;4937355;29;20565;-80
2022/07/17 02:42:21;;;;;;;18.83;10.05;;;;;;;16.66;68.21;99831.66;4937073;29;20070;-79
2022/07/17 02:44:49;;;;;;;16.58;9.77;;;;;;;16.69;67.91;99838.63;4936851;29;20114;-80
2022/07/17 02:47:28;;;;;;;18.08;9.77;;;;;;;16.87;67.25;99848.81;4920123;29;20052;-79
2022/07/17 02:49:55;;;;;;;13.07;8.23;;;;;;;16.84;67.06;99835.66;4952070;29;20592;-79
2022/07/17 02:52:23;;;;;;;12.60;7.72;;;;;;;16.94;67.11;99836.34;4937046;29;20103;-79
2022/07/17 02:54:50;;;;;;;12.05;7.82;;;;;;;17.01;66.98;99831.78;4937281;29;20062;-79
2022/07/17 02:57:18;;;;;;;13.43;7.95;;;;;;;17.12;66.92;99848.22;4937222;29;20056;-79
2022/07/17 02:59:46;;;;;;;13.30;7.60;;;;;;;17.12;66.63;99835.91;4936865;29;20068;-79
2022/07/17 03:02:14;;;;;;;11.30;7.20;;;;;;;17.13;66.61;99844.69;4937281;29;20056;-79
2022/07/17 03:04:41;;;;;;;13.45;6.72;;;;;;;17.17;66.23;99834.03;4936802;29;20052;-80
2022/07/17 03:07:10;;;;;;;10.73;6.65;;;;;;;17.35;65.50;99827.41;4936340;29;20062;-79
2022/07/17 03:09:37;;;;;;;12.05;6.80;;;;;;;17.42;65.07;99809.66;4936627;29;20055;-78
2022/07/17 03:12:06;;;;;;;9.93;6.80;;;;;;;17.69;64.91;99831.84;4936456;29;20517;-78
2022/07/17 03:14:33;;;;;;;11.18;6.78;;;;;;;17.98;64.03;99849.59;4935751;29;20083;-79
2022/07/17 03:17:00;;;;;;;13.35;7.18;;;;;;;18.14;63.55;99836.81;4936071;29;20429;-79
2022/07/17 03:19:27;;;;;;;11.10;7.47;;;;;;;18.28;62.90;99843.50;4936227;29;20083;-79
2022/07/17 03:21:54;;;;;;;14.07;6.63;;;;;;;18.42;62.52;99812.25;4936202;29;20581;-79
2022/07/17 03:24:21;;;;;;;11.13;6.60;;;;;;;18.90;61.45;99839.91;4936484;29;20079;-79
2022/07/17 03:26:48;;;;;;;11.13;6.70;;;;;;;19.23;60.22;99844.16;4936210;29;20052;-78
2022/07/17 03:29:18;;;;;;;15.45;6.47;;;;;;;19.41;59.09;99813.53;4936167;29;20524;-78
2022/07/17 03:31:46;;;;;;;9.93;6.75;;;;;;;19.91;58.27;99825.13;4935911;29;20059;-79
2022/07/17 03:34:14;;;;;;;13.13;6.40;;;;;;;20.54;55.83;99831.63;4935985;29;20071;-79
2022/07/17 03:36:41;;;;;;;11.70;6.30;;;;;;;20.68;54.93;99801.06;4935876;29;20461;-78
2022/07/17 03:39:08;;;;;;;10.65;6.97;;;;;;;20.62;54.95;99820.75;4935933;29;20162;-79
2022/07/17 03:41:35;;;;;;;11.30;6.80;;;;;;;20.37;55.13;99781.88;4935877;29;20056;-79
2022/07/17 03:44:03;;;;;;;11.23;6.40;;;;;;;20.39;55.63;99827.78;4935834;29;20429;-80
2022/07/17 03:46:29;;;;;;;12.73;7.00;;;;;;;20.31;55.75;99829.84;4935851;29;20095;-80
2022/07/17 03:48:56;;;;;;;12.18;6.63;;;;;;;20.00;55.79;99780.59;4936343;29;20055;-78
2022/07/17 03:51:24;;;;;;;11.70;6.72;;;;;;;20.26;55.75;99823.81;4935979;29;20056;-79
2022/07/17 03:53:52;;;;;;;12.48;7.38;;;;;;;20.28;55.84;99824.63;4935843;29;20054;-80
2022/07/17 03:56:20;;;;;;;11.57;7.07;;;;;;;20.13;55.65;99782.78;4936160;29;20083;-80
2022/07/17 03:58:47;;;;;;;13.38;7.43;;;;;;;20.35;55.60;99812.00;4934016;29;20513;-79
2022/07/17 04:01:14;;;;;;;13.40;8.07;;;;;;;20.44;55.60;99831.09;4935711;29;20059;-79
2022/07/17 04:03:41;;;;;;;16.95;8.25;;;;;;;20.48;55.51;99829.22;4935561;29;20492;-77
2022/07/17 04:06:08;;;;;;;13.48;7.32;;;;;;;20.59;54.79;99839.44;4935753;29;20051;-77
2022/07/17 04:08:35;;;;;;;11.93;7.05;;;;;;;20.47;54.79;99798.28;4935360;29;20066;-79
2022/07/17 04:11:02;;;;;;;12.18;7.38;;;;;;;20.63;54.61;99817.19;4935431;29;20048;-78
2022/07/17 04:13:35;;;;;;;15.60;8.18;;;;;;;20.77;54.50;99835.22;4919151;29;20059;-77
2022/07/17 04:16:03;;;;;;;13.25;7.88;;;;;;;21.12;53.57;99819.66;4918536;29;20051;-79
2022/07/17 04:18:34;;;;;;;18.48;8.60;;;;;;;21.63;51.82;99784.75;4918678;29;20168;-79
2022/07/17 04:21:07;;;;;;;12.27;7.43;;;;;;;22.32;50.51;99823.41;4935632;29;20056;-78
2022/07/17 04:23:35;;;;;;;14.50;7.60;;;;;;;22.49;50.25;99819.97;4937357;29;20059;-80
2022/07/17 04:26:03;;;;;;;14.25;8.25;;;;;;;22.45;50.18;99818.38;4935577;29;20196;-79
2022/07/17 04:28:38;;;;;;;13.65;7.40;;;;;;;22.75;49.80;99828.53;4935329;29;20134;-79
2022/07/17 04:31:05;;;;;;;13.52;7.90;;;;;;;23.28;48.65;99820.63;4918376;29;20604;-78
2022/07/17 04:33:32;;;;;;;11.63;7.82;;;;;;;23.86;46.99;99803.47;4934869;29;20398;-77
2022/07/17 04:35:59;;;;;;;13.27;7.38;;;;;;;24.08;46.43;99775.66;4935064;29;20103;-77
2022/07/17 04:38:26;;;;;;;11.57;7.15;;;;;;;24.40;45.66;99799.75;4935133;29;20059;-77
2022/07/17 04:40:53;;;;;;;11.88;7.15;;;;;;;24.30;45.54;99810.91;4935267;29;20134;-78
2022/07/17 04:43:20;;;;;;;15.35;7.45;;;;;;;24.35;45.75;99812.47;4935301;29;20099;-78
2022/07/17 04:45:47;;;;;;;10.50;5.82;;;;;;;24.50;44.75;99817.88;4935113;29;20056;-78
2022/07/17 04:48:14;;;;;;;11.18;5.47;;;;;;;24.33;45.02;99796.56;4934874;29;20584;-78
2022/07/17 04:50:41;;;;;;;8.75;5.07;;;;;;;24.31;44.98;99803.78;4935424;29;20064;-78
2022/07/17 04:53:08;;;;;;;8.63;4.40;;;;;;;24.22;44.50;99807.81;4949744;29;20142;-79
2022/07/17 04:55:36;;;;;;;10.27;4.10;;;;;;;24.15;44.59;99810.88;4934976;29;20107;-78
2022/07/17 04:58:03;;;;;;;8.90;3.80;;;;;;;24.26;44.23;99809.38;4934999;29;20106;-80
2022/07/17 05:00:31;;;;;;;8.52;4.10;;;;;;;24.32;43.90;99814.34;4933903;29;20150;-80
2022/07/17 05:02:58;;;;;;;8.57;4.10;;;;;;;24.29;44.21;99801.19;4934989;29;20058;-77
2022/07/17 05:05:25;;;;;;;11.20;4.47;;;;;;;24.28;44.22;99803.94;4935065;29;20115;-79
2022/07/17 05:07:53;;;;;;;8.95;3.92;;;;;;;24.40;43.47;99802.41;4934859;29;20513;-79
2022/07/17 05:10:20;;;;;;;7.60;4.18;;;;;;;24.66;43.03;99793.00;4934655;29;20052;-78
2022/07/17 05:12:54;;;;;;;6.22;4.20;;;;;;;25.07;41.91;99795.97;4934819;29;20060;-78
2022/07/17 05:15:21;;;;;;;8.35;4.18;;;;;;;25.42;41.06;99805.59;4935240;29;20421;-79
2022/07/17 05:17:49;;;;;;;10.55;4.50;;;;;;;25.87;40.48;99801.09;4934390;29;20217;-83
2022/07/17 05:20:16;;;;;;;8.40;3.83;;;;;;;26.30;39.30;99803.81;4935001;29;20075;-77
2022/07/17 05:22:42;;;;;;;6.20;4.03;;;;;;;26.47;38.88;99794.72;4934778;29;20126;-76
2022/07/17 05:25:10;;;;;;;11.55;3.92;;;;;;;26.13;39.11;99792.34;4934640;29;20075;-76
2022/07/17 05:27:36;;;;;;;8.85;3.97;;;;;;;25.86;39.41;99805.59;4934460;29;20421;-78
2022/07/17 05:30:04;;;;;;;8.07;3.70;;;;;;;25.65;39.30;99769.44;4934703;29;20064;-80
2022/07/17 05:32:31;;;;;;;6.95;3.67;;;;;;;25.09;38.98;99721.06;4933679;29;20048;-80
2022/07/17 05:34:59;;;;;;;6.97;3.25;;;;;;;25.36;38.44;99769.41;4934482;29;20089;-80
2022/07/17 05:37:26;;;;;;;6.10;3.40;;;;;;;25.81;38.48;99806.81;4935311;29;20063;-79
2022/07/17 05:39:53;;;;;;;7.03;3.17;;;;;;;25.64;37.59;99763.25;4952775;29;20055;-79
2022/07/17 05:42:20;;;;;;;3.83;2.45;;;;;;;25.77;37.02;99802.59;4938381;29;20106;-78
2022/07/17 05:44:47;;;;;;;6.32;2.88;;;;;;;25.48;37.10;99774.00;4938202;29;20147;-79
2022/07/17 05:47:14;;;;;;;3.65;2.60;;;;;;;25.70;36.93;99812.81;4952680;29;20048;-79
2022/07/17 05:49:41;;;;;;;5.45;2.70;;;;;;;25.60;36.96;99807.19;4953003;29;20051;-80
2022/07/17 05:52:08;;;;;;;4.50;2.70;;;;;;;25.43;37.15;99802.81;4938434;29;20060;-80
2022/07/17 05:54:35;;;;;;;4.05;2.38;;;;;;;25.43;37.01;99783.25;4938060;29;20055;-81
2022/07/17 05:57:02;;;;;;;5.63;2.30;;;;;;;25.31;36.63;99799.06;4937705;29;20052;-81
2022/07/17 05:59:36;;;;;;;3.50;2.00;;;;;;;25.02;36.86;99778.50;4937999;29;20459;-81
2022/07/17 06:02:04;;;;;;;3.83;2.50;;;;;;;24.83;38.16;99790.22;4952223;29;20420;-80
2022/07/17 06:04:31;;;;;;;3.58;2.35;;;;;;;24.96;37.85;99794.88;4936347;29;20425;-80
2022/07/17 06:06:59;;;;;;;3.38;1.85;;;;;;;24.90;37.37;99780.06;4937391;29;20051;-80
2022/07/17 06:09:26;;;;;;;2.20;2.00;;;;;;;24.88;37.61;99789.97;4937304;29;20612;-80
2022/07/17 06:11:52;;;;;;;2.40;1.98;;;;;;;24.69;37.89;99760.75;4937592;29;20114;-81
2022/07/17 06:14:20;;;;;;;4.38;2.33;;;;;;;24.93;37.62;99793.25;4936753;29;20485;-80
2022/07/17 06:16:47;;;;;;;3.88;1.98;;;;;;;24.86;37.85;99791.84;4918934;29;20411;-80
2022/07/17 06:19:14;;;;;;;4.65;2.60;;;;;;;24.77;37.94;99774.53;4920652;29;20094;-80
2022/07/17 06:21:42;;;;;;;7.18;3.22;;;;;;;24.71;38.16;99799.78;4925916;29;20383;-82
2022/07/17 06:24:09;;;;;;;5.43;3.00;;;;;;;24.68;38.47;99785.75;4958138;29;20051;-78
2022/07/17 06:26:36;;;;;;;2.85;1.83;;;;;;;24.53;38.43;99787.47;4940600;29;20470;-80
2022/07/17 06:29:03;;;;;;;2.40;1.83;;;;;;;24.58;38.78;99795.22;4937324;29;20146;-79
2022/07/17 06:31:30;;;;;;;4.05;2.00;;;;;;;24.56;38.08;99797.97;4937365;29;20052;-79
2022/07/17 06:33:58;;;;;;;3.80;2.10;;;;;;;24.60;38.23;99804.00;4951950;29;20051;-80
2022/07/17 06:36:24;;;;;;;6.72;2.72;;;;;;;24.62;38.26;99768.25;4937215;29;20056;-81
2022/07/17 06:38:51;;;;;;;4.60;2.30;;;;;;;24.89;38.32;99779.19;4936930;29;20147;-80
2022/07/17 06:41:19;;;;;;;3.10;2.13;;;;;;;25.11;37.27;99778.81;4937329;29;20067;-80
2022/07/17 06:43:46;;;;;;;3.40;2.00;;;;;;;24.72;36.98;99748.09;4937079;29;20067;-79
2022/07/17 06:46:13;;;;;;;4.43;2.00;;;;;;;25.01;37.07;99790.13;4936896;29;20154;-78
2022/07/17 06:48:40;;;;;;;3.50;2.10;;;;;;;24.96;37.23;99771.69;4936240;29;20055;-77
2022/07/17 06:51:07;;;;;;;3.00;2.30;;;;;;;25.00;38.00;99775.06;4937209;29;20060;-82
2022/07/17 06:53:33;;;;;;;5.10;2.90;;;;;;;25.05;37.90;99741.75;4923439;29;20052;-77
2022/07/17 06:56:01;;;;;;;5.90;2.63;;;;;;;25.28;38.19;99769.00;4944025;29;20513;-79
2022/07/17 06:58:28;;;;;;;5.88;2.72;;;;;;;25.37;37.24;99775.59;4944511;29;20083;-77
2022/07/17 07:00:55;;;;;;;4.60;2.00;;;;;;;25.25;35.76;99763.81;4942747;29;20066;-79
2022/07/17 07:03:22;;;;;;;6.03;2.15;;;;;;;25.24;35.81;99764.78;4937883;29;20079;-82
2022/07/17 07:05:50;;;;;;;2.92;1.77;;;;;;;25.08;35.11;99773.66;4937261;29;20056;-78
2022/07/17 07:08:17;;;;;;;2.65;1.80;;;;;;;24.92;35.36;99748.75;4936794;29;20103;-81
2022/07/17 07:10:44;;;;;;;4.93;1.90;;;;;;;24.91;35.07;99742.56;4935686;29;20059;-80
2022/07/17 07:13:15;;;;;;;13.32;6.65;;;;;;;25.18;35.15;99759.75;4936591;29;20056;-78
2022/07/17 07:15:42;;;;;;;4.28;2.17;;;;;;;25.02;35.16;99727.72;4937096;29;20051;-77
2022/07/17 07:18:09;;;;;;;3.75;1.83;;;;;;;25.22;35.28;99762.19;4935793;29;20074;-81
2022/07/17 07:20:36;;;;;;;9.43;2.03;;;;;;;25.06;34.92;99740.81;4936596;29;20110;-78
2022/07/17 07:23:03;;;;;;;4.00;2.17;;;;;;;25.24;35.25;99767.44;4936379;29;20063;-79
2022/07/17 07:25:34;;;;;;;2.30;2.10;;;;;;;25.23;34.98;99731.84;4936439;29;20058;-78
2022/07/17 07:28:03;;;;;;;3.08;2.20;;;;;;;25.61;34.38;99752.72;4934280;29;20083;-81
2022/07/17 07:30:30;;;;;;;5.33;2.40;;;;;;;25.59;34.16;99759.13;4950753;29;20060;-81
2022/07/17 07:32:58;;;;;;;4.63;1.88;;;;;;;25.54;33.79;99776.31;4935538;29;20055;-78
2022/07/17 07:35:25;;;;;;;3.95;1.80;;;;;;;25.69;32.19;99781.69;4935382;29;20465;-78
2022/07/17 07:37:52;;;;;;;4.07;1.75;;;;;;;25.39;32.34;99776.38;4936026;29;20051;-81
2022/07/17 07:40:19;;;;;;;6.13;1.55;;;;;;;25.41;32.63;99774.47;4935846;29;20126;-80
2022/07/17 07:42:46;;;;;;;1.83;1.48;;;;;;;25.50;32.57;99773.91;4935819;29;20428;-80
2022/07/17 07:45:13;;;;;;;3.30;1.50;;;;;;;25.23;33.32;99776.41;4934480;29;20151;-78
2022/07/17 07:47:46;;;;;;;6.82;2.55;;;;;;;25.58;33.65;99771.66;4936603;29;20087;-78
2022/07/17 07:50:14;;;;;;;2.95;1.90;;;;;;;26.09;33.31;99764.09;4918890;29;20044;-78
2022/07/17 07:52:41;;;;;;;3.75;1.98;;;;;;;26.23;31.96;99743.59;4935971;29;20055;-81
2022/07/17 07:55:10;;;;;;;3.35;1.42;;;;;;;26.49;31.84;99763.34;4935660;29;20056;-79
2022/07/17 07:57:46;;;;;;;2.50;1.40;;;;;;;26.54;31.19;99774.63;4935898;29;20052;-79
2022/07/17 08:00:13;;;;;;;2.10;1.58;;;;;;;26.55;30.78;99771.00;4935163;29;20102;-79
2022/07/17 08:02:41;;;;;;;1.38;1.27;;;;;;;26.66;30.15;99776.56;4936017;29;20204;-81
2022/07/17 08:05:08;;;;;;;2.45;1.58;;;;;;;26.58;30.28;99773.50;4935537;29;20138;-79
2022/07/17 08:07:36;;;;;;;2.67;1.67;;;;;;;26.80;30.57;99780.16;4935662;29;20453;-79
2022/07/17 08:10:04;;;;;;;4.18;1.70;;;;;;;26.47;31.30;99763.44;4935885;29;20067;-78
2022/07/17 08:12:31;;;;;;;1.95;1.63;;;;;;;26.25;31.67;99761.28;4935671;29;20051;-80
2022/07/17 08:15:16;;;;;;;4.95;1.70;;;;;;;26.16;32.15;99791.31;4937712;29;20063;-79
2022/07/17 08:17:44;;;;;;;4.78;1.60;;;;;;;26.21;32.27;99794.56;4938683;29;20150;-79
2022/07/17 08:20:12;;;;;;;4.35;1.80;;;;;;;26.73;31.59;99788.59;4940524;29;20056;-79
2022/07/17 08:22:42;;;;;;;4.60;1.60;;;;;;;27.00;31.73;99786.91;4939322;29;20060;-79
2022/07/17 08:25:30;;;;;;;2.08;1.60;;;;;;;27.24;31.44;99784.44;4935471;29;20413;-79
2022/07/17 08:27:57;;;;;;;3.65;1.77;;;;;;;27.43;31.00;99792.09;4952445;29;20059;-79
2022/07/17 08:30:24;;;;;;;7.72;1.95;;;;;;;27.77;30.72;99785.28;4938673;29;20060;-79
2022/07/17 08:32:51;;;;;;;7.53;1.58;;;;;;;27.97;30.41;99779.41;4939723;29;20063;-81
2022/07/17 08:35:19;;;;;;;3.78;1.80;;;;;;;28.19;28.38;99759.09;4935347;29;20425;-79
2022/07/17 08:37:51;;;;;;;3.35;1.42;;;;;;;28.20;28.41;99774.25;4935703;29;20142;-80
2022/07/17 08:40:23;;;;;;;5.05;1.75;;;;;;;28.03;28.21;99734.28;4935705;29;20110;-81
2022/07/17 08:42:52;;;;;;;2.15;1.52;;;;;;;28.05;28.65;99765.44;4935537;29;20055;-81
2022/07/17 08:45:19;;;;;;;3.10;1.55;;;;;;;28.09;28.28;99782.19;4935313;29;20052;-81
2022/07/17 08:47:47;;;;;;;3.58;1.48;;;;;;;27.72;28.89;99790.94;4935976;29;20086;-82
2022/07/17 08:50:14;;;;;;;4.57;1.60;;;;;;;26.83;29.68;99740.63;4935282;29;20059;-80
2022/07/17 08:52:42;;;;;;;5.65;1.60;;;;;;;26.81;30.37;99793.44;4935050;29;20478;-82
2022/07/17 08:55:14;;;;;;;4.22;1.88;;;;;;;26.55;30.11;99722.78;4935266;29;20516;-79
2022/07/17 08:57:43;;;;;;;1.55;1.33;;;;;;;26.71;30.10;99798.53;4935805;29;20528;-79
2022/07/17 09:00:15;;;;;;;3.92;1.67;;;;;;;26.43;30.98;99793.19;4935436;29;20059;-83
2022/07/17 09:03:16;;;;;;;5.32;2.28;;;;;;;26.49;31.71;99787.47;4935629;29;20083;-81
2022/07/17 09:05:44;;;;;;;4.80;2.05;;;;;;;26.71;31.72;99797.69;4903708;29;20056;-80
2022/07/17 09:08:20;;;;;;;2.20;1.73;;;;;;;26.66;31.44;99783.75;4934933;29;20055;-79
2022/07/17 09:10:51;;;;;;;4.15;1.98;;;;;;;26.71;31.59;99795.00;4949775;29;20059;-79
2022/07/17 09:13:23;;;;;;;4.32;2.30;;;;;;;26.69;31.55;99786.19;4936750;29;20136;-81
2022/07/17 09:15:53;;;;;;;4.95;2.15;;;;;;;26.59;31.86;99785.97;4937404;29;20059;-80
2022/07/17 09:18:20;;;;;;;4.03;2.17;;;;;;;26.45;31.83;99745.75;4937150;29;20087;-80
2022/07/17 09:20:50;;;;;;;4.53;2.03;;;;;;;27.00;31.41;99766.31;4938307;29;20521;-79
2022/07/17 09:23:18;;;;;;;3.50;1.63;;;;;;;27.12;31.19;99773.50;4938398;29;20484;-81
2022/07/17 09:25:48;;;;;;;3.17;2.35;;;;;;;27.21;31.17;99780.09;4940769;29;20050;-78
2022/07/17 09:28:17;;;;;;;3.95;2.35;;;;;;;27.28;31.16;99789.47;4948765;29;20074;-78
2022/07/17 09:30:53;;;;;;;3.70;2.15;;;;;;;26.99;31.40;99786.00;4958645;29;20059;-79
2022/07/17 09:33:23;;;;;;;4.78;2.30;;;;;;;26.88;31.61;99784.03;4957880;29;20055;-78
2022/07/17 09:36:06;;;;;;;5.47;2.83;;;;;;;26.88;31.06;99780.50;4943264;29;20058;-77
2022/07/17 09:38:40;;;;;;;3.55;2.03;;;;;;;26.77;30.50;99762.47;4938402;29;20054;-77
2022/07/17 09:41:15;;;;;;;3.25;2.88;;;;;;;26.93;30.40;99789.97;4938808;29;20150;-77
2022/07/17 09:43:52;;;;;;;6.65;3.58;;;;;;;26.93;30.14;99776.56;4939177;29;20052;-78
2022/07/17 09:46:22;;;;;;;8.05;4.20;;;;;;;26.76;29.33;99758.94;4939452;29;20056;-77
2022/07/17 09:48:55;;;;;;;5.57;3.30;;;;;;;27.07;29.29;99781.00;4937779;29;20056;-77
2022/07/17 09:51:33;;;;;;;6.03;3.65;;;;;;;27.10;29.63;99737.06;4938113;29;20083;-79
2022/07/17 09:54:03;;;;;;;5.53;4.20;;;;;;;27.52;29.78;99778.91;4937901;29;20063;-76
2022/07/17 09:56:33;;;;;;;4.60;2.60;;;;;;;27.51;29.95;99784.38;4938129;29;20067;-77
2022/07/17 09:59:06;;;;;;;4.15;2.00;;;;;;;27.45;30.07;99785.66;4937549;29;20075;-78
2022/07/17 10:01:34;;;;;;;3.65;1.90;;;;;;;27.25;30.55;99775.41;4937714;29;20055;-80
2022/07/17 10:04:02;;;;;;;5.22;2.10;;;;;;;27.30;30.86;99792.06;4936778;29;20063;-77
2022/07/17 10:06:31;;;;;;;4.47;2.00;;;;;;;27.68;30.47;99772.47;4936870;29;20055;-79
2022/07/17 10:08:59;;;;;;;4.00;2.03;;;;;;;27.91;29.92;99766.41;4936601;29;20469;-79
2022/07/17 10:11:36;;;;;;;6.43;2.58;;;;;;;27.95;29.66;99743.75;4936559;29;20569;-80
2022/07/17 10:14:12;;;;;;;3.50;2.10;;;;;;;27.80;29.39;99770.78;4936703;29;20072;-81
2022/07/17 10:16:40;;;;;;;2.85;2.17;;;;;;;27.38;30.26;99773.63;4936497;29;20056;-79
2022/07/17 10:19:24;;;;;;;2.15;1.88;;;;;;;27.37;30.41;99763.88;4936301;29;20094;-77
2022/07/17 10:22:04;;;;;;;6.15;2.35;;;;;;;27.46;29.71;99733.72;4936701;29;20142;-79
2022/07/17 10:24:31;;;;;;;;;;;;;;;27.69;30.21;99752.75;4936966;29;20111;-78
2022/07/17 10:26:59;;;;;;;3.25;1.77;;;;;;;27.91;29.65;99762.88;4937120;29;19931;-79
2022/07/17 10:29:27;;;;;;;4.00;1.70;;;;;;;27.90;28.97;99759.34;4937863;29;20059;-78
2022/07/17 10:31:54;;;;;;;2.55;1.88;;;;;;;27.97;29.06;99770.50;4937151;29;20099;-78
2022/07/17 10:34:41;;;;;;;5.50;1.90;;;;;;;27.95;28.88;99748.28;4936031;29;20051;-78
2022/07/17 10:37:24;;;;;;;3.75;1.85;;;;;;;28.07;28.89;99773.38;4934859;29;20055;-78
2022/07/17 10:40:07;;;;;;;1.60;1.45;;;;;;;28.24;27.73;99769.50;4936297;29;20107;-79
2022/07/17 10:43:01;;;;;;;1.90;1.80;;;;;;;28.23;27.83;99765.94;4937059;29;20466;-78
2022/07/17 10:45:33;;;;;;;4.15;2.30;;;;;;;28.52;28.02;99763.00;4919102;29;20746;-80
2022/07/17 10:48:15;;;;;;;3.45;2.08;;;;;;;28.59;27.64;99748.19;4936041;29;20061;-79
2022/07/17 10:50:55;;;;;;;4.05;1.85;;;;;;;28.29;27.54;99759.28;4934746;29;20055;-78
2022/07/17 10:53:32;;;;;;;2.05;1.65;;;;;;;28.14;27.41;99755.88;4936149;29;20079;-81
2022/07/17 10:56:04;;;;;;;2.17;1.45;;;;;;;27.92;27.86;99760.09;4935956;29;20047;-81
2022/07/17 10:58:39;;;;;;;2.97;1.88;;;;;;;27.69;28.13;99717.88;4935570;29;20063;-81
2022/07/17 11:01:16;;;;;;;4.00;1.50;;;;;;;27.67;28.56;99743.94;4935765;29;20146;-79
2022/07/17 11:03:52;;;;;;;2.75;1.55;;;;;;;27.34;29.01;99742.59;4935702;29;20103;-82
2022/07/17 11:06:25;;;;;;;2.05;1.67;;;;;;;27.08;29.23;99729.13;4935246;29;20406;-79
2022/07/17 11:08:55;;;;;;;3.47;2.53;;;;;;;27.35;28.95;99744.34;4935697;29;20110;-78
2022/07/17 11:11:39;;;;;;;1.95;1.80;;;;;;;27.59;28.40;99739.09;4935353;29;20051;-80
2022/07/17 11:14:07;;;;;;;1.70;1.60;;;;;;;28.11;27.54;99738.13;4935141;29;20432;-79
2022/07/17 11:16:35;;;;;;;3.75;1.88;;;;;;;28.16;27.44;99709.16;4934637;29;20055;-81
2022/07/17 11:19:02;;;;;;;4.40;1.77;;;;;;;28.61;27.00;99740.88;4935195;29;20079;-81
2022/07/17 11:21:29;;;;;;;2.92;1.20;;;;;;;28.76;26.99;99728.09;4935363;29;20059;-81
2022/07/17 11:23:57;;;;;;;2.13;1.40;;;;;;;28.53;26.69;99684.16;4935280;29;20454;-82
2022/07/17 11:26:25;;;;;;;4.05;1.65;;;;;;;28.72;27.02;99738.22;4934303;29;20474;-79
2022/07/17 11:28:53;;;;;;;3.72;1.77;;;;;;;28.47;27.29;99711.44;4935227;29;20052;-80
2022/07/17 11:31:28;;;;;;;4.30;1.77;;;;;;;28.57;27.42;99747.44;4935480;29;20056;-84
2022/07/17 11:33:58;;;;;;;2.45;2.10;;;;;;;28.53;27.14;99756.69;4935553;29;20105;-83
2022/07/17 11:36:26;;;;;;;2.78;1.73;;;;;;;28.57;26.28;99745.59;4935015;29;20192;-83
2022/07/17 11:38:56;;;;;;;4.18;2.22;;;;;;;28.44;26.38;99741.19;4935187;29;20182;-84